createdAt,value
2018-10-03T00:00:32.699Z,92.40
2018-10-03T00:03:02.374Z,92.30
2018-10-03T00:05:32.037Z,92.20
2018-10-03T00:08:01.702Z,92.20
2018-10-03T00:10:31.389Z,92.10
2018-10-03T00:13:01.058Z,91.90
2018-10-03T00:15:30.744Z,91.90
2018-10-03T00:18:00.443Z,91.80
2018-10-03T00:20:30.099Z,91.80
2018-10-03T00:22:59.763Z,91.80
2018-10-03T00:25:29.422Z,91.70
2018-10-03T00:27:59.090Z,91.60
2018-10-03T00:30:28.761Z,91.60
2018-10-03T00:32:58.413Z,91.60
2018-10-03T00:35:28.086Z,91.30
2018-10-03T00:37:57.795Z,91.10
2018-10-03T00:40:27.490Z,91.30
2018-10-03T00:42:57.230Z,91.20
2018-10-03T00:45:26.910Z,91.30
2018-10-03T00:47:56.561Z,91.30
2018-10-03T00:50:26.231Z,91.20
2018-10-03T00:52:55.922Z,91.10
2018-10-03T00:55:25.615Z,91.10
2018-10-03T00:57:55.351Z,91.10
2018-10-03T01:00:25.042Z,91.10
2018-10-03T01:02:55.111Z,91.00
2018-10-03T01:05:24.804Z,91.10
2018-10-03T01:07:54.538Z,91.20
2018-10-03T01:10:24.513Z,91.20
2018-10-03T01:12:54.211Z,91.10
2018-10-03T01:15:23.891Z,91.10
2018-10-03T01:17:53.627Z,91.10
2018-10-03T01:20:23.274Z,91.10
2018-10-03T01:22:53.279Z,91.10
2018-10-03T01:25:22.954Z,91.10
2018-10-03T01:27:52.619Z,91.00
2018-10-03T01:30:22.282Z,91.00
2018-10-03T01:32:51.982Z,91.20
2018-10-03T01:35:21.632Z,91.30
2018-10-03T01:37:51.306Z,91.40
2018-10-03T01:40:20.972Z,91.40
2018-10-03T01:42:50.643Z,91.40
2018-10-03T01:45:20.355Z,91.30
2018-10-03T01:47:50.066Z,91.40
2018-10-03T01:50:19.762Z,91.50
2018-10-03T01:52:49.414Z,91.20
2018-10-03T01:55:19.075Z,91.30
2018-10-03T01:57:48.723Z,91.40
2018-10-03T02:00:18.405Z,91.20
2018-10-03T02:02:48.110Z,91.50
2018-10-03T02:05:17.763Z,91.20
2018-10-03T02:07:47.411Z,91.20
2018-10-03T02:10:17.137Z,91.10
2018-10-03T02:12:46.782Z,91.20
2018-10-03T02:15:16.467Z,91.40
2018-10-03T02:17:46.231Z,91.50
2018-10-03T02:20:15.963Z,91.50
2018-10-03T02:22:45.650Z,91.50
2018-10-03T02:25:15.399Z,91.50
2018-10-03T02:27:45.087Z,91.50
2018-10-03T02:30:14.913Z,91.40
2018-10-03T02:32:44.682Z,91.30
2018-10-03T02:35:14.423Z,91.60
2018-10-03T02:37:44.395Z,91.30
2018-10-03T02:40:14.219Z,91.30
2018-10-03T02:42:43.963Z,91.40
2018-10-03T02:45:13.673Z,91.50
2018-10-03T02:47:43.385Z,91.40
2018-10-03T02:50:13.098Z,91.50
2018-10-03T02:52:42.898Z,91.60
2018-10-03T02:55:12.622Z,91.60
2018-10-03T02:57:42.315Z,91.50
2018-10-03T03:00:12.074Z,91.60
2018-10-03T03:02:41.752Z,91.60
2018-10-03T03:05:11.463Z,91.60
2018-10-03T03:07:41.147Z,91.70
2018-10-03T03:10:10.871Z,91.70
2018-10-03T03:12:40.552Z,91.80
2018-10-03T03:15:10.271Z,91.70
2018-10-03T03:17:39.992Z,91.70
2018-10-03T03:20:09.800Z,91.80
2018-10-03T03:22:39.449Z,91.80
2018-10-03T03:25:09.173Z,92.00
2018-10-03T03:27:38.887Z,91.90
2018-10-03T03:30:08.583Z,91.80
2018-10-03T03:32:38.275Z,91.90
2018-10-03T03:35:07.978Z,91.80
2018-10-03T03:37:37.734Z,91.90
2018-10-03T03:40:07.689Z,91.90
2018-10-03T03:42:37.415Z,92.00
2018-10-03T03:45:07.142Z,92.00
2018-10-03T03:47:36.850Z,92.00
2018-10-03T03:50:06.929Z,91.90
2018-10-03T03:52:36.620Z,91.80
2018-10-03T03:55:06.593Z,91.80
2018-10-03T03:57:36.419Z,91.80
2018-10-03T04:00:06.123Z,91.80
2018-10-03T04:02:35.798Z,92.00
2018-10-03T04:05:05.486Z,92.00
2018-10-03T04:07:35.184Z,91.90
2018-10-03T04:10:04.938Z,92.00
2018-10-03T04:12:34.630Z,91.90
2018-10-03T04:15:04.357Z,91.90
2018-10-03T04:17:34.135Z,92.00
2018-10-03T04:20:03.917Z,92.10
2018-10-03T04:22:33.652Z,92.10
2018-10-03T04:25:03.395Z,92.10
2018-10-03T04:27:33.114Z,92.10
2018-10-03T04:30:02.847Z,92.00
2018-10-03T04:32:32.561Z,92.20
2018-10-03T04:35:02.283Z,92.10
2018-10-03T04:37:32.346Z,92.20
2018-10-03T04:40:02.066Z,92.30
2018-10-03T04:42:31.803Z,92.30
2018-10-03T04:45:01.505Z,92.30
2018-10-03T04:47:31.226Z,92.40
2018-10-03T04:50:00.943Z,92.60
2018-10-03T04:52:30.672Z,92.70
2018-10-03T04:55:00.415Z,92.90
2018-10-03T04:57:30.179Z,93.00
2018-10-03T04:59:59.892Z,93.10
2018-10-03T05:02:29.607Z,93.00
2018-10-03T05:04:59.425Z,93.00
2018-10-03T05:07:29.131Z,93.20
2018-10-03T05:09:58.836Z,93.10
2018-10-03T05:12:28.554Z,93.20
2018-10-03T05:14:58.290Z,93.20
2018-10-03T05:17:27.999Z,93.20
2018-10-03T05:19:58.020Z,93.60
2018-10-03T05:22:27.755Z,93.30
2018-10-03T05:24:57.554Z,93.10
2018-10-03T05:27:27.254Z,93.10
2018-10-03T05:29:56.954Z,93.10
2018-10-03T05:32:26.672Z,93.20
2018-10-03T05:34:56.347Z,93.20
2018-10-03T05:37:26.059Z,93.50
2018-10-03T05:39:56.107Z,93.00
2018-10-03T05:42:25.788Z,93.10
2018-10-03T05:44:55.495Z,93.10
2018-10-03T05:47:25.189Z,93.00
2018-10-03T05:49:54.883Z,93.00
2018-10-03T05:52:24.675Z,93.00
2018-10-03T05:54:54.440Z,93.00
2018-10-03T05:57:24.115Z,93.00
2018-10-03T05:59:53.872Z,93.00
2018-10-03T06:02:23.579Z,93.00
2018-10-03T06:04:53.298Z,93.00
2018-10-03T06:07:22.968Z,93.00
2018-10-03T06:09:52.660Z,92.70
2018-10-03T06:12:22.342Z,93.00
2018-10-03T06:14:52.107Z,92.90
2018-10-03T06:17:22.125Z,92.80
2018-10-03T06:19:51.914Z,92.90
2018-10-03T06:22:23.269Z,92.70
2018-10-03T06:24:53.103Z,92.80
2018-10-03T06:27:23.853Z,92.70
2018-10-03T06:29:53.632Z,92.80
2018-10-03T06:32:23.320Z,92.80
2018-10-03T06:34:53.023Z,92.80
2018-10-03T06:37:22.825Z,92.80
2018-10-03T06:39:52.599Z,92.80
2018-10-03T06:42:22.287Z,93.00
2018-10-03T06:44:53.735Z,93.00
2018-10-03T06:47:23.517Z,93.10
2018-10-03T06:49:53.258Z,93.10
2018-10-03T06:52:22.940Z,93.20
2018-10-03T06:54:52.656Z,93.30
2018-10-03T06:57:22.347Z,93.10
2018-10-03T06:59:52.091Z,93.30
2018-10-03T07:02:22.535Z,93.20
2018-10-03T07:04:52.235Z,93.30
2018-10-03T07:07:22.561Z,93.30
2018-10-03T07:09:52.605Z,93.40
2018-10-03T07:12:22.595Z,93.40
2018-10-03T07:14:52.587Z,93.20
2018-10-03T07:17:22.322Z,93.10
2018-10-03T07:19:52.419Z,93.20
2018-10-03T07:22:22.359Z,93.20
2018-10-03T07:24:52.292Z,93.20
2018-10-03T07:27:22.000Z,93.30
2018-10-03T07:29:51.763Z,93.40
2018-10-03T07:32:21.846Z,93.40
2018-10-03T07:34:51.671Z,93.40
2018-10-03T07:37:21.408Z,93.40
2018-10-03T07:39:51.151Z,93.20
2018-10-03T07:42:20.967Z,93.20
2018-10-03T07:44:53.455Z,93.10
2018-10-03T07:47:23.302Z,93.30
2018-10-03T07:49:53.861Z,93.20
2018-10-03T07:52:23.610Z,93.20
2018-10-03T07:54:53.323Z,93.30
2018-10-03T07:57:23.168Z,93.20
2018-10-03T07:59:52.884Z,93.30
2018-10-03T08:02:22.617Z,93.40
2018-10-03T08:04:52.336Z,93.80
2018-10-03T08:07:22.071Z,93.70
2018-10-03T08:09:51.788Z,93.80
2018-10-03T08:12:22.079Z,94.20
2018-10-03T08:14:51.791Z,93.90
2018-10-03T08:17:21.691Z,94.00
2018-10-03T08:19:51.751Z,94.00
2018-10-03T08:22:21.483Z,93.80
2018-10-03T08:24:51.187Z,94.20
2018-10-03T08:27:20.910Z,93.90
2018-10-03T08:29:50.637Z,94.40
2018-10-03T08:32:20.464Z,94.50
2018-10-03T08:34:50.722Z,94.60
2018-10-03T08:37:20.800Z,94.80
2018-10-03T08:39:50.978Z,94.80
2018-10-03T08:42:20.754Z,95.10
2018-10-03T08:44:50.531Z,95.80
2018-10-03T08:47:20.291Z,96.40
2018-10-03T08:49:50.358Z,96.60
2018-10-03T08:52:20.203Z,96.80
2018-10-03T08:54:50.028Z,96.90
2018-10-03T08:57:19.767Z,96.90
2018-10-03T08:59:49.557Z,96.90
2018-10-03T09:02:19.360Z,97.00
2018-10-03T09:04:49.110Z,97.10
2018-10-03T09:07:19.171Z,97.30
2018-10-03T09:09:48.930Z,97.60
2018-10-03T09:12:18.695Z,97.70
2018-10-03T09:14:48.438Z,98.00
2018-10-03T09:17:18.248Z,98.10
2018-10-03T09:19:48.290Z,98.00
2018-10-03T09:22:18.023Z,98.20
2018-10-03T09:24:48.114Z,98.50
2018-10-03T09:27:17.845Z,98.70
2018-10-03T09:29:47.594Z,98.80
2018-10-03T09:32:17.361Z,98.90
2018-10-03T09:34:47.119Z,98.80
2018-10-03T09:37:16.874Z,99.10
2018-10-03T09:39:46.672Z,99.20
2018-10-03T09:42:16.828Z,99.50
2018-10-03T09:44:52.263Z,99.30
2018-10-03T09:47:22.350Z,99.40
2018-10-03T09:49:52.135Z,99.40
2018-10-03T09:52:21.891Z,99.60
2018-10-03T09:54:51.674Z,99.80
2018-10-03T09:57:21.394Z,99.80
2018-10-03T09:59:51.522Z,99.90
2018-10-03T10:02:21.291Z,99.90
2018-10-03T10:04:51.340Z,99.90
2018-10-03T10:07:21.395Z,99.90
2018-10-03T10:09:51.159Z,99.60
2018-10-03T10:12:21.230Z,99.50
2018-10-03T10:14:51.257Z,99.50
2018-10-03T10:17:21.322Z,99.40
2018-10-03T10:19:51.034Z,99.20
2018-10-03T10:22:21.079Z,99.10
2018-10-03T10:24:51.120Z,99.20
2018-10-03T10:27:20.887Z,99.10
2018-10-03T10:29:50.619Z,99.10
2018-10-03T10:32:21.377Z,98.70
2018-10-03T10:34:51.267Z,98.70
2018-10-03T10:37:21.084Z,98.70
2018-10-03T10:39:50.830Z,98.70
2018-10-03T10:42:20.987Z,98.90
2018-10-03T10:44:50.819Z,98.80
2018-10-03T10:47:20.603Z,98.90
2018-10-03T10:49:50.627Z,98.50
2018-10-03T10:52:20.375Z,98.60
2018-10-03T10:54:50.110Z,98.60
2018-10-03T10:57:19.867Z,98.90
2018-10-03T10:59:50.015Z,98.60
2018-10-03T11:02:20.804Z,98.40
2018-10-03T11:04:50.831Z,98.30
2018-10-03T11:07:20.605Z,98.10
2018-10-03T11:09:50.336Z,97.90
2018-10-03T11:12:20.108Z,98.00
2018-10-03T11:14:50.133Z,97.80
2018-10-03T11:17:19.884Z,97.40
2018-10-03T11:19:49.968Z,97.30
2018-10-03T11:22:19.995Z,97.20
2018-10-03T11:24:50.665Z,96.90
2018-10-03T11:27:20.450Z,96.90
2018-10-03T11:29:50.127Z,96.70
2018-10-03T11:32:20.141Z,96.30
2018-10-03T11:34:50.004Z,96.60
2018-10-03T11:37:19.747Z,96.40
2018-10-03T11:39:49.454Z,96.50
2018-10-03T11:42:19.159Z,96.10
2018-10-03T11:44:49.188Z,95.30
2018-10-03T11:47:18.958Z,95.00
2018-10-03T11:49:48.686Z,95.40
2018-10-03T11:52:18.703Z,94.80
2018-10-03T11:54:48.707Z,94.80
2018-10-03T11:57:18.457Z,94.60
2018-10-03T11:59:48.162Z,94.70
2018-10-03T12:02:17.868Z,95.20
2018-10-03T12:04:47.575Z,95.60
2018-10-03T12:07:17.267Z,95.60
2018-10-03T12:09:47.003Z,95.50
2018-10-03T12:12:16.722Z,95.50
2018-10-03T12:14:46.719Z,95.80
2018-10-03T12:17:16.480Z,95.40
2018-10-03T12:19:46.235Z,95.50
2018-10-03T12:22:15.958Z,95.50
2018-10-03T12:24:46.011Z,95.50
2018-10-03T12:27:15.750Z,95.40
2018-10-03T12:29:45.528Z,95.50
2018-10-03T12:32:15.536Z,95.50
2018-10-03T12:34:47.295Z,95.60
2018-10-03T12:37:17.040Z,95.30
2018-10-03T12:39:46.804Z,95.20
2018-10-03T12:42:16.535Z,95.10
2018-10-03T12:44:51.945Z,95.20
2018-10-03T12:47:21.679Z,95.10
2018-10-03T12:49:51.771Z,95.00
2018-10-03T12:52:21.679Z,94.90
2018-10-03T12:54:51.506Z,94.90
2018-10-03T12:57:21.470Z,94.50
2018-10-03T12:59:51.295Z,94.80
2018-10-03T13:02:21.030Z,94.90
2018-10-03T13:04:50.824Z,94.50
2018-10-03T13:07:20.584Z,94.30
2018-10-03T13:09:50.667Z,94.00
2018-10-03T13:12:20.403Z,93.60
2018-10-03T13:14:50.462Z,93.20
2018-10-03T13:17:20.183Z,93.10
2018-10-03T13:19:49.918Z,93.30
2018-10-03T13:22:20.279Z,92.90
2018-10-03T13:24:50.131Z,93.00
2018-10-03T13:27:20.178Z,92.70
2018-10-03T13:29:50.184Z,92.50
2018-10-03T13:32:19.896Z,92.30
2018-10-03T13:34:49.878Z,92.30
2018-10-03T13:37:19.579Z,92.00
2018-10-03T13:39:49.715Z,92.10
2018-10-03T13:42:19.407Z,92.20
2018-10-03T13:44:49.433Z,92.10
2018-10-03T13:47:19.134Z,92.30
2018-10-03T13:49:48.847Z,92.00
2018-10-03T13:52:18.563Z,91.90
2018-10-03T13:54:48.308Z,91.50
2018-10-03T13:57:17.999Z,91.90
2018-10-03T13:59:47.775Z,91.70
2018-10-03T14:02:17.484Z,91.60
2018-10-03T14:04:47.547Z,91.20
2018-10-03T14:07:17.617Z,91.40
2018-10-03T14:09:47.322Z,91.30
2018-10-03T14:12:17.031Z,90.90
2018-10-03T14:14:46.764Z,90.70
2018-10-03T14:17:16.583Z,91.30
2018-10-03T14:19:46.448Z,90.90
2018-10-03T14:22:16.180Z,91.10
2018-10-03T14:24:45.920Z,90.80
2018-10-03T14:27:15.942Z,90.40
2018-10-03T14:29:46.027Z,90.50
2018-10-03T14:32:15.770Z,90.30
2018-10-03T14:34:45.528Z,89.80
2018-10-03T14:37:15.366Z,90.00
2018-10-03T14:39:45.429Z,90.50
2018-10-03T14:42:15.390Z,90.30
2018-10-03T14:44:45.124Z,90.50
2018-10-03T14:47:14.876Z,90.00
2018-10-03T14:49:44.591Z,90.20
2018-10-03T14:52:14.529Z,90.00
2018-10-03T14:54:44.443Z,90.20
2018-10-03T14:57:14.230Z,89.50
2018-10-03T14:59:43.968Z,89.70
2018-10-03T15:02:13.719Z,89.70
2018-10-03T15:04:43.757Z,89.90
2018-10-03T15:07:13.767Z,90.00
2018-10-03T15:09:43.468Z,90.20
2018-10-03T15:12:13.525Z,89.80
2018-10-03T15:14:43.287Z,89.80
2018-10-03T15:17:13.377Z,90.10
2018-10-03T15:19:43.408Z,90.00
2018-10-03T15:22:13.155Z,90.10
2018-10-03T15:24:42.891Z,90.00
2018-10-03T15:27:12.919Z,90.30
2018-10-03T15:29:42.751Z,90.10
2018-10-03T15:32:12.969Z,90.50
2018-10-03T15:34:42.699Z,90.30
2018-10-03T15:37:12.463Z,90.00
2018-10-03T15:39:42.255Z,90.30
2018-10-03T15:42:12.087Z,90.30
2018-10-03T15:44:47.595Z,90.10
2018-10-03T15:47:17.637Z,90.70
2018-10-03T15:49:47.363Z,90.60
2018-10-03T15:52:17.391Z,90.80
2018-10-03T15:54:47.126Z,90.80
2018-10-03T15:57:16.867Z,90.60
2018-10-03T15:59:46.587Z,90.70
2018-10-03T16:02:16.618Z,90.60
2018-10-03T16:04:46.374Z,90.70
2018-10-03T16:07:16.161Z,90.70
2018-10-03T16:09:45.902Z,91.00
2018-10-03T16:12:15.830Z,91.00
2018-10-03T16:14:45.548Z,91.30
2018-10-03T16:17:15.590Z,91.50
2018-10-03T16:19:45.294Z,91.60
2018-10-03T16:22:14.995Z,91.70
2018-10-03T16:24:44.976Z,91.50
2018-10-03T16:27:14.721Z,91.50
2018-10-03T16:29:44.747Z,91.70
2018-10-03T16:32:14.779Z,91.70
2018-10-03T16:34:44.619Z,91.70
2018-10-03T16:37:14.351Z,91.80
2018-10-03T16:39:44.683Z,91.90
2018-10-03T16:42:14.403Z,91.90
2018-10-03T16:44:44.395Z,91.90
2018-10-03T16:47:14.423Z,91.90
2018-10-03T16:49:44.152Z,91.90
2018-10-03T16:52:14.099Z,92.00
2018-10-03T16:54:44.099Z,92.10
2018-10-03T16:57:14.106Z,92.30
2018-10-03T16:59:43.835Z,92.00
2018-10-03T17:02:13.819Z,92.10
2018-10-03T17:04:43.544Z,92.10
2018-10-03T17:07:13.308Z,92.10
2018-10-03T17:09:43.044Z,92.20
2018-10-03T17:12:13.020Z,92.20
2018-10-03T17:14:42.832Z,92.20
2018-10-03T17:17:12.639Z,92.10
2018-10-03T17:19:42.715Z,92.30
2018-10-03T17:22:12.509Z,92.30
2018-10-03T17:24:42.596Z,92.20
2018-10-03T17:27:14.508Z,92.30
2018-10-03T17:29:45.221Z,92.40
2018-10-03T17:32:15.291Z,92.70
2018-10-03T17:34:46.085Z,92.80
2018-10-03T17:37:16.220Z,92.80
2018-10-03T17:39:46.002Z,92.80
2018-10-03T17:42:15.891Z,92.90
2018-10-03T17:44:45.624Z,93.10
2018-10-03T17:47:15.407Z,93.20
2018-10-03T17:49:45.187Z,93.20
2018-10-03T17:52:14.915Z,93.30
2018-10-03T17:54:44.656Z,93.40
2018-10-03T17:57:14.666Z,93.40
2018-10-03T17:59:44.742Z,93.40
2018-10-03T18:02:15.555Z,93.30
2018-10-03T18:04:45.404Z,93.50
2018-10-03T18:07:15.629Z,93.30
2018-10-03T18:09:46.392Z,93.40
2018-10-03T18:12:16.123Z,93.50
2018-10-03T18:14:45.891Z,93.60
2018-10-03T18:17:15.660Z,93.60
2018-10-03T18:19:45.769Z,93.70
2018-10-03T18:22:16.266Z,93.40
2018-10-03T18:24:46.431Z,93.50
2018-10-03T18:27:16.215Z,93.40
2018-10-03T18:29:46.259Z,93.50
2018-10-03T18:32:16.031Z,93.50
2018-10-03T18:34:45.815Z,93.70
2018-10-03T18:37:15.914Z,93.90
2018-10-03T18:39:45.882Z,93.70
2018-10-03T18:42:15.631Z,93.90
2018-10-03T18:44:45.781Z,94.00
2018-10-03T18:47:15.624Z,93.70
2018-10-03T18:49:45.678Z,93.90
2018-10-03T18:52:15.596Z,94.00
2018-10-03T18:54:45.579Z,93.90
2018-10-03T18:57:15.419Z,93.80
2018-10-03T18:59:45.680Z,93.60
2018-10-03T19:02:16.193Z,93.60
2018-10-03T19:04:47.174Z,93.50
2018-10-03T19:07:17.651Z,93.60
2018-10-03T19:09:47.623Z,93.60
2018-10-03T19:12:17.657Z,93.80
2018-10-03T19:14:47.739Z,93.70
2018-10-03T19:17:17.654Z,93.70
2018-10-03T19:19:47.554Z,93.70
2018-10-03T19:22:17.955Z,94.20
2018-10-03T19:24:47.691Z,93.70
2018-10-03T19:27:17.733Z,94.00
2018-10-03T19:29:47.632Z,94.00
2018-10-03T19:32:17.828Z,93.90
2018-10-03T19:34:47.960Z,94.30
2018-10-03T19:37:18.322Z,94.40
2018-10-03T19:39:48.725Z,94.20
2018-10-03T19:42:18.988Z,94.20
2018-10-03T19:44:48.943Z,94.30
2018-10-03T19:47:19.048Z,94.20
2018-10-03T19:49:49.067Z,94.50
2018-10-03T19:52:19.241Z,94.40
2018-10-03T19:54:49.483Z,94.60
2018-10-03T19:57:19.549Z,94.70
2018-10-03T19:59:49.779Z,94.70
2018-10-03T20:02:19.803Z,94.60
2018-10-03T20:04:49.544Z,94.40
2018-10-03T20:07:19.690Z,94.80
2018-10-03T20:09:50.338Z,94.90
2018-10-03T20:12:20.819Z,94.90
2018-10-03T20:14:50.863Z,94.70
2018-10-03T20:17:21.291Z,94.90
2018-10-03T20:19:51.075Z,94.90
2018-10-03T20:22:20.857Z,94.80
2018-10-03T20:24:50.736Z,94.90
2018-10-03T20:27:20.633Z,94.80
2018-10-03T20:29:50.571Z,94.90
2018-10-03T20:32:20.364Z,94.80
2018-10-03T20:34:51.951Z,94.80
2018-10-03T20:37:21.914Z,94.70
2018-10-03T20:39:51.687Z,94.60
2018-10-03T20:42:21.761Z,94.80
2018-10-03T20:44:51.538Z,94.80
2018-10-03T20:47:21.601Z,94.80
2018-10-03T20:49:51.433Z,94.90
2018-10-03T20:52:21.279Z,95.00
2018-10-03T20:54:51.042Z,94.90
2018-10-03T20:57:20.779Z,94.60
2018-10-03T20:59:50.564Z,94.40
2018-10-03T21:02:20.415Z,94.50
2018-10-03T21:04:50.171Z,94.80
2018-10-03T21:07:20.150Z,95.00
2018-10-03T21:09:50.074Z,94.90
2018-10-03T21:12:19.958Z,94.70
2018-10-03T21:14:49.771Z,95.00
2018-10-03T21:17:19.651Z,95.10
2018-10-03T21:19:49.444Z,95.30
2018-10-03T21:22:19.231Z,95.40
2018-10-03T21:24:49.043Z,95.50
2018-10-03T21:27:19.155Z,95.50
2018-10-03T21:29:48.912Z,95.30
2018-10-03T21:32:18.827Z,95.20
2018-10-03T21:34:49.072Z,94.90
2018-10-03T21:37:18.899Z,94.90
2018-10-03T21:39:48.828Z,94.90
2018-10-03T21:42:18.636Z,94.90
2018-10-03T21:44:48.695Z,94.90
2018-10-03T21:47:18.509Z,94.90
2018-10-03T21:49:48.283Z,95.00
2018-10-03T21:52:18.150Z,95.10
2018-10-03T21:54:47.911Z,95.10
2018-10-03T21:57:17.604Z,95.00
2018-10-03T21:59:47.311Z,95.10
2018-10-03T22:02:17.296Z,95.10
2018-10-03T22:04:47.182Z,95.10
2018-10-03T22:07:16.881Z,95.30
2018-10-03T22:09:46.587Z,95.40
2018-10-03T22:12:16.317Z,95.40
2018-10-03T22:14:46.015Z,95.40
2018-10-03T22:17:21.065Z,95.40
2018-10-03T22:19:50.772Z,95.40
2018-10-03T22:22:20.535Z,95.20
2018-10-03T22:24:50.254Z,95.20
2018-10-03T22:27:19.955Z,95.30
2018-10-03T22:29:49.664Z,95.20
2018-10-03T22:32:19.339Z,95.20
2018-10-03T22:34:49.118Z,95.30
2018-10-03T22:37:18.835Z,95.20
2018-10-03T22:39:48.556Z,95.20
2018-10-03T22:42:18.263Z,95.50
2018-10-03T22:44:47.980Z,95.40
2018-10-03T22:47:17.673Z,95.50
2018-10-03T22:49:47.415Z,95.60
2018-10-03T22:52:17.116Z,95.70
2018-10-03T22:54:46.823Z,95.60
2018-10-03T22:57:16.522Z,95.60
2018-10-03T22:59:46.555Z,95.60
2018-10-03T23:02:16.269Z,95.90
2018-10-03T23:04:45.986Z,95.60
2018-10-03T23:07:16.027Z,95.80
2018-10-03T23:09:45.783Z,95.80
2018-10-03T23:12:15.464Z,95.80
2018-10-03T23:14:45.180Z,95.80
2018-10-03T23:17:14.927Z,95.80
2018-10-03T23:19:44.671Z,95.90
2018-10-03T23:22:14.523Z,95.90
2018-10-03T23:24:44.355Z,95.90
2018-10-03T23:27:14.303Z,95.90
2018-10-03T23:29:44.078Z,95.90
2018-10-03T23:32:13.860Z,95.70
2018-10-03T23:34:43.627Z,95.70
2018-10-03T23:37:13.350Z,95.60
2018-10-03T23:39:43.104Z,95.70
2018-10-03T23:42:12.836Z,95.60
2018-10-03T23:44:42.633Z,95.40
2018-10-03T23:47:12.363Z,95.60
2018-10-03T23:49:42.118Z,95.70
2018-10-03T23:52:11.856Z,95.90
2018-10-03T23:54:41.628Z,95.80
2018-10-03T23:57:11.403Z,95.60
2018-10-03T23:59:41.328Z,95.70
